Time;durP1;ratioP1;P1;durP2;ratioP2;P2;SDS_P1;SDS_P2;PMS_P1;PMS_P2;Temp;Humidity;BMP_temperature;BMP_pressure;BME280_temperature;BME280_humidity;BME280_pressure;Samples;Min_cycle;Max_cycle;Signal;HPM_P1;HPM_P2
2022/05/16 00:00:43;;;;;;;12.93;4.60;;;17.00;99.90;;;;;;5009335;28;20037;-85
2022/05/16 00:03:09;;;;;;;12.48;4.93;;;17.00;99.90;;;;;;5014204;28;20014;-85
2022/05/16 00:05:36;;;;;;;11.73;5.15;;;17.00;99.90;;;;;;5017053;28;20022;-85
2022/05/16 00:08:03;;;;;;;14.23;5.53;;;16.90;99.90;;;;;;5017618;28;20095;-85
2022/05/16 00:10:28;;;;;;;14.88;5.57;;;16.90;99.90;;;;;;5017763;28;20010;-84
2022/05/16 00:12:54;;;;;;;10.02;5.35;;;16.80;99.90;;;;;;5017513;28;20031;-85
2022/05/16 00:15:22;;;;;;;12.50;5.20;;;16.80;99.90;;;;;;5017962;28;20014;-85
2022/05/16 00:17:48;;;;;;;13.98;5.32;;;16.70;99.90;;;;;;5017364;28;20014;-86
2022/05/16 00:20:14;;;;;;;12.38;5.55;;;16.70;99.90;;;;;;5016974;28;20049;-86
2022/05/16 00:22:40;;;;;;;14.82;5.53;;;16.60;99.90;;;;;;5017417;28;20107;-86
2022/05/16 00:25:09;;;;;;;10.80;5.20;;;16.60;99.90;;;;;;5016801;28;20027;-85
2022/05/16 00:27:35;;;;;;;11.35;4.75;;;16.60;99.90;;;;;;5015569;28;20054;-87
2022/05/16 00:30:04;;;;;;;10.70;5.63;;;16.50;99.90;;;;;;5009682;28;20049;-86
2022/05/16 00:32:30;;;;;;;15.95;5.97;;;16.50;99.90;;;;;;5007343;28;20026;-86
2022/05/16 00:34:55;;;;;;;15.75;5.57;;;16.50;99.90;;;;;;4994385;28;20343;-86
2022/05/16 00:37:21;;;;;;;13.85;5.53;;;16.50;99.90;;;;;;5012793;28;20086;-85
2022/05/16 00:39:47;;;;;;;9.98;5.25;;;16.40;99.90;;;;;;5011410;28;20036;-87
2022/05/16 00:42:13;;;;;;;8.32;4.85;;;16.40;99.90;;;;;;5008812;28;20125;-88
2022/05/16 00:44:39;;;;;;;14.77;5.20;;;16.40;99.90;;;;;;5009058;28;20023;-86
2022/05/16 00:47:05;;;;;;;16.88;5.18;;;16.40;99.90;;;;;;5007910;28;20038;-86
2022/05/16 00:49:35;;;;;;;9.07;5.65;;;16.40;99.90;;;;;;5008445;28;20030;-86
2022/05/16 00:52:25;;;;;;;10.05;4.78;;;16.40;99.90;;;;;;5009485;28;20027;-85
2022/05/16 00:55:19;;;;;;;10.23;5.30;;;16.40;99.90;;;;;;5009622;28;20030;-88
2022/05/16 00:57:49;;;;;;;9.13;5.05;;;16.30;99.90;;;;;;5007184;28;20046;-87
2022/05/16 01:00:19;;;;;;;17.23;5.28;;;16.30;99.90;;;;;;5013607;28;20086;-87
2022/05/16 01:05:38;;;;;;;12.02;4.70;;;16.30;99.90;;;;;;5012733;28;20034;-86
2022/05/16 01:08:07;;;;;;;14.95;5.00;;;16.20;99.90;;;;;;5007803;28;20029;-86
2022/05/16 01:10:34;;;;;;;14.23;5.05;;;16.20;99.90;;;;;;5009732;28;20041;-88
2022/05/16 01:13:01;;;;;;;10.50;5.03;;;16.20;99.90;;;;;;5010987;28;20046;-87
2022/05/16 01:15:36;;;;;;;15.45;5.47;;;16.10;99.90;;;;;;5011371;28;20030;-87
2022/05/16 01:18:07;;;;;;;8.18;4.35;;;16.10;99.90;;;;;;5016457;28;20034;-86
2022/05/16 01:20:47;;;;;;;12.57;4.30;;;16.10;99.90;;;;;;5021941;28;20081;-86
2022/05/16 01:23:16;;;;;;;7.45;4.45;;;16.10;99.90;;;;;;5021970;28;20029;-85
2022/05/16 01:25:42;;;;;;;9.50;4.43;;;16.00;99.90;;;;;;5021644;28;20034;-85
2022/05/16 01:28:07;;;;;;;10.40;4.72;;;16.00;99.90;;;;;;5021450;28;20010;-85
2022/05/16 01:30:40;;;;;;;15.93;4.35;;;15.90;99.90;;;;;;5021195;28;20049;-84
2022/05/16 01:33:06;;;;;;;13.43;5.05;;;15.90;99.90;;;;;;5021266;28;20033;-85
2022/05/16 01:35:33;;;;;;;12.40;5.10;;;15.90;99.90;;;;;;5020211;28;20019;-85
2022/05/16 01:40:52;;;;;;;11.25;5.30;;;15.80;99.90;;;;;;5011651;28;20070;-86
2022/05/16 01:43:21;;;;;;;12.73;5.40;;;15.70;99.90;;;;;;5006741;28;20161;-85
2022/05/16 01:45:47;;;;;;;10.70;5.20;;;15.60;99.90;;;;;;5007586;28;20046;-86
2022/05/16 01:48:15;;;;;;;13.63;5.03;;;15.60;99.90;;;;;;5010528;28;20030;-85
2022/05/16 01:50:43;;;;;;;12.50;5.25;;;15.60;99.90;;;;;;5016046;28;20038;-86
2022/05/16 01:53:10;;;;;;;10.57;5.03;;;15.60;99.90;;;;;;5014733;28;20022;-87
2022/05/16 01:55:36;;;;;;;9.95;5.05;;;15.60;99.90;;;;;;5014411;28;20030;-87
2022/05/16 01:58:02;;;;;;;11.15;4.70;;;15.60;99.90;;;;;;5017074;28;20010;-85
2022/05/16 02:00:30;;;;;;;9.45;5.10;;;15.50;99.90;;;;;;5019682;28;20038;-84
2022/05/16 02:02:56;;;;;;;10.35;5.30;;;15.50;99.90;;;;;;5020293;28;20022;-85
2022/05/16 02:05:23;;;;;;;9.35;4.68;;;15.50;99.90;;;;;;5020256;28;20018;-84
2022/05/16 02:07:50;;;;;;;11.02;4.78;;;15.50;99.90;;;;;;5019620;28;20034;-86
2022/05/16 02:10:18;;;;;;;8.48;4.93;;;15.50;99.90;;;;;;5019417;28;20030;-84
2022/05/16 02:12:45;;;;;;;16.10;5.32;;;15.50;99.90;;;;;;5019727;28;20022;-84
2022/05/16 02:15:15;;;;;;;11.40;5.28;;;15.40;99.90;;;;;;5016468;28;20034;-86
2022/05/16 02:17:41;;;;;;;13.98;5.38;;;15.40;99.90;;;;;;5015189;28;20023;-85
2022/05/16 02:20:07;;;;;;;9.73;5.13;;;15.40;99.90;;;;;;5008531;28;20026;-86
2022/05/16 02:25:18;;;;;;;13.63;5.43;;;15.30;99.90;;;;;;5008260;28;20030;-88
2022/05/16 02:27:45;;;;;;;12.43;5.20;;;15.30;99.90;;;;;;5005924;28;20102;-87
2022/05/16 02:30:12;;;;;;;15.60;5.93;;;15.30;99.90;;;;;;5006167;28;20042;-87
2022/05/16 02:32:38;;;;;;;10.95;5.70;;;15.30;99.90;;;;;;5009169;28;20025;-87
2022/05/16 02:35:05;;;;;;;16.02;4.78;;;15.30;99.90;;;;;;5005974;28;20043;-86
2022/05/16 02:37:31;;;;;;;12.00;5.28;;;15.30;99.90;;;;;;5007101;28;20474;-86
2022/05/16 02:39:57;;;;;;;13.35;5.80;;;15.30;99.90;;;;;;5006340;28;20038;-86
2022/05/16 02:42:23;;;;;;;14.38;5.30;;;15.20;99.90;;;;;;5006733;28;20048;-87
2022/05/16 02:44:52;;;;;;;10.73;4.97;;;15.20;99.90;;;;;;5007570;28;20034;-86
2022/05/16 02:47:20;;;;;;;10.52;4.75;;;15.20;99.90;;;;;;5004658;28;20022;-86
2022/05/16 02:49:46;;;;;;;16.13;5.40;;;15.20;99.90;;;;;;5006561;28;20030;-86
2022/05/16 02:52:12;;;;;;;11.63;5.18;;;15.20;99.90;;;;;;5011985;28;20023;-86
2022/05/16 02:54:38;;;;;;;7.53;5.05;;;15.10;99.90;;;;;;5013280;28;20067;-86
2022/05/16 02:57:06;;;;;;;15.95;5.13;;;15.10;99.90;;;;;;5008167;28;20090;-87
2022/05/16 02:59:33;;;;;;;13.38;5.18;;;15.10;99.90;;;;;;5004927;28;20041;-85
2022/05/16 03:02:07;;;;;;;16.27;5.75;;;15.00;99.90;;;;;;5005942;28;20106;-89
2022/05/16 03:04:34;;;;;;;13.70;5.22;;;15.00;99.90;;;;;;5012461;28;20030;-87
2022/05/16 03:07:00;;;;;;;10.50;5.47;;;15.00;99.90;;;;;;5005502;28;20061;-87
2022/05/16 03:09:27;;;;;;;13.88;5.50;;;14.90;99.90;;;;;;5006289;28;20045;-85
2022/05/16 03:11:53;;;;;;;13.60;5.85;;;14.90;99.90;;;;;;5020808;23;20038;-82
2022/05/16 03:14:19;;;;;;;13.13;5.03;;;14.90;99.90;;;;;;5013306;28;20030;-82
2022/05/16 03:16:46;;;;;;;14.45;5.43;;;14.90;99.90;;;;;;5015745;28;20031;-82
2022/05/16 03:19:12;;;;;;;13.45;5.55;;;14.90;99.90;;;;;;5009358;28;20038;-83
2022/05/16 03:21:38;;;;;;;15.32;5.65;;;14.90;99.90;;;;;;4999194;28;20022;-83
2022/05/16 03:24:05;;;;;;;14.82;5.80;;;14.90;99.90;;;;;;4998664;28;20038;-84
2022/05/16 03:26:31;;;;;;;10.07;5.20;;;14.90;99.90;;;;;;5000167;28;20050;-83
2022/05/16 03:28:57;;;;;;;12.57;5.15;;;14.90;99.90;;;;;;5008279;28;20042;-81
2022/05/16 03:31:22;;;;;;;19.30;5.00;;;14.90;99.90;;;;;;5017883;28;20037;-80
2022/05/16 03:33:48;;;;;;;12.23;5.75;;;14.90;99.90;;;;;;5018111;28;20022;-81
2022/05/16 03:36:14;;;;;;;15.35;6.15;;;14.90;99.90;;;;;;5013702;28;20077;-84
2022/05/16 03:41:24;;;;;;;12.30;5.60;;;14.90;99.90;;;;;;5018480;28;20026;-83
2022/05/16 03:43:50;;;;;;;15.63;5.38;;;15.00;99.90;;;;;;5017431;28;20021;-83
2022/05/16 03:46:17;;;;;;;11.45;5.68;;;15.00;99.90;;;;;;5018581;28;20050;-79
2022/05/16 03:48:43;;;;;;;14.68;5.95;;;15.10;99.90;;;;;;5018979;28;20090;-81
2022/05/16 03:51:11;;;;;;;14.80;5.97;;;15.10;99.90;;;;;;5018897;28;20022;-81
2022/05/16 03:53:46;;;;;;;13.05;5.68;;;15.10;99.90;;;;;;5017822;28;20022;-81
2022/05/16 03:56:30;;;;;;;14.55;6.85;;;15.10;99.90;;;;;;5018170;28;20014;-82
2022/05/16 03:59:52;;;;;;;15.02;5.30;;;15.30;99.90;;;;;;5018120;28;20058;-81
2022/05/16 04:02:18;;;;;;;13.98;5.35;;;15.30;99.90;;;;;;5018316;28;20113;-81
2022/05/16 04:04:44;;;;;;;18.33;5.68;;;15.40;99.90;;;;;;5017695;28;20018;-82
2022/05/16 04:07:09;;;;;;;14.63;5.55;;;15.50;99.90;;;;;;5018136;28;20018;-81
2022/05/16 04:09:35;;;;;;;13.30;5.40;;;15.60;99.90;;;;;;5017897;28;20015;-81
2022/05/16 04:12:01;;;;;;;16.77;5.03;;;15.60;99.90;;;;;;5017898;28;20061;-81
2022/05/16 04:14:27;;;;;;;12.77;6.18;;;15.70;99.90;;;;;;5018166;28;20005;-81
2022/05/16 04:16:52;;;;;;;14.77;5.28;;;15.70;99.90;;;;;;5017962;28;20022;-82
2022/05/16 04:19:18;;;;;;;11.93;5.40;;;15.80;99.90;;;;;;5017761;28;20053;-81
2022/05/16 04:21:44;;;;;;;12.18;5.45;;;15.90;99.90;;;;;;5017314;28;20042;-82
2022/05/16 04:24:10;;;;;;;11.18;5.20;;;15.90;99.90;;;;;;5017108;28;20019;-82
2022/05/16 04:26:36;;;;;;;8.90;4.90;;;16.00;99.90;;;;;;5017966;28;20086;-82
2022/05/16 04:29:03;;;;;;;14.93;5.68;;;16.00;99.90;;;;;;5018166;28;20057;-82
2022/05/16 04:31:29;;;;;;;15.13;5.15;;;16.00;99.90;;;;;;5017867;28;20018;-80
2022/05/16 04:33:55;;;;;;;14.70;5.60;;;16.00;99.90;;;;;;5035337;28;20064;-81
2022/05/16 04:36:21;;;;;;;14.63;5.22;;;16.00;99.90;;;;;;5036939;28;20061;-81
2022/05/16 04:38:47;;;;;;;16.63;5.38;;;16.10;99.90;;;;;;5036806;28;20018;-81
2022/05/16 04:43:57;;;;;;;14.75;5.40;;;16.30;99.90;;;;;;5037299;28;20018;-82
2022/05/16 04:46:23;;;;;;;13.02;5.57;;;16.40;99.90;;;;;;5037655;28;20045;-81
2022/05/16 04:48:49;;;;;;;11.70;5.43;;;16.50;99.90;;;;;;5036956;28;20072;-81
2022/05/16 04:51:14;;;;;;;16.25;5.85;;;16.70;99.90;;;;;;5036868;28;20017;-81
2022/05/16 04:53:40;;;;;;;12.95;5.32;;;16.90;99.90;;;;;;5036668;28;20026;-82
2022/05/16 04:56:06;;;;;;;13.38;5.47;;;17.10;99.90;;;;;;5037402;28;20060;-81
2022/05/16 04:58:35;;;;;;;14.10;4.78;;;17.10;99.90;;;;;;5036853;28;20029;-80
2022/05/16 05:01:02;;;;;;;18.88;6.15;;;17.10;99.90;;;;;;5037395;28;20018;-82
2022/05/16 05:03:28;;;;;;;20.00;5.65;;;17.10;99.90;;;;;;5037071;28;20053;-80
2022/05/16 05:05:53;;;;;;;14.70;5.57;;;17.10;99.90;;;;;;5037481;28;20049;-82
2022/05/16 05:08:19;;;;;;;15.48;5.53;;;17.20;99.90;;;;;;5035305;28;20018;-83
2022/05/16 05:16:19;;;;;;;17.60;6.55;;;17.30;99.90;;;;;;5021213;28;20034;-89
2022/05/16 05:18:45;;;;;;;14.88;5.55;;;17.30;99.90;;;;;;5005993;28;20042;-84
2022/05/16 05:21:11;;;;;;;12.32;5.60;;;17.50;99.90;;;;;;5006748;28;20146;-84
2022/05/16 05:23:39;;;;;;;15.82;5.53;;;17.60;99.90;;;;;;5006284;28;20030;-85
2022/05/16 05:26:07;;;;;;;13.02;5.10;;;17.70;99.90;;;;;;5005462;28;20049;-87
2022/05/16 05:28:34;;;;;;;10.07;4.72;;;17.70;99.90;;;;;;5009737;28;20030;-86
2022/05/16 05:31:00;;;;;;;15.70;6.30;;;17.80;99.90;;;;;;5008497;28;20022;-85
2022/05/16 05:33:27;;;;;;;10.63;5.03;;;17.90;99.90;;;;;;5004975;28;20042;-85
2022/05/16 05:35:52;;;;;;;18.95;6.10;;;17.90;99.90;;;;;;5005938;28;20105;-85
2022/05/16 05:38:18;;;;;;;16.25;5.68;;;18.00;99.90;;;;;;5012150;28;20030;-84
2022/05/16 05:40:45;;;;;;;10.52;5.30;;;18.00;99.90;;;;;;5010258;28;20034;-85
2022/05/16 05:43:11;;;;;;;12.93;5.28;;;18.10;99.90;;;;;;5017615;28;20029;-85
2022/05/16 05:45:38;;;;;;;14.13;5.57;;;18.30;99.90;;;;;;5012423;28;20053;-86
2022/05/16 05:48:04;;;;;;;16.77;5.07;;;18.40;99.90;;;;;;5013991;28;20038;-87
2022/05/16 05:50:30;;;;;;;17.30;5.35;;;18.50;99.90;;;;;;5016001;28;20062;-87
2022/05/16 05:52:57;;;;;;;12.18;5.50;;;18.40;99.90;;;;;;5017357;28;20085;-86
2022/05/16 05:55:23;;;;;;;20.27;5.53;;;18.50;99.90;;;;;;5019323;28;20027;-84
2022/05/16 05:57:49;;;;;;;11.20;5.32;;;18.50;99.90;;;;;;5018757;28;20045;-86
2022/05/16 06:00:15;;;;;;;14.18;5.68;;;18.60;99.90;;;;;;5017993;28;20026;-85
2022/05/16 06:02:42;;;;;;;23.38;5.68;;;18.70;99.90;;;;;;5012998;28;20034;-86
2022/05/16 06:05:11;;;;;;;20.88;5.72;;;18.80;99.90;;;;;;5010437;28;20082;-85
2022/05/16 06:07:37;;;;;;;16.35;7.18;;;19.00;99.90;;;;;;5010030;28;20026;-86
2022/05/16 06:10:04;;;;;;;15.63;5.05;;;19.10;99.90;;;;;;5007758;28;20205;-86
2022/05/16 06:12:31;;;;;;;14.02;5.50;;;19.40;99.90;;;;;;5009333;28;20038;-87
2022/05/16 06:14:57;;;;;;;14.98;4.80;;;19.70;99.90;;;;;;5010739;28;20053;-86
2022/05/16 06:17:23;;;;;;;13.07;5.05;;;19.90;99.90;;;;;;5009831;28;20030;-87
2022/05/16 06:19:49;;;;;;;16.17;5.05;;;20.10;99.90;;;;;;5008578;28;20037;-86
2022/05/16 06:22:15;;;;;;;10.73;4.68;;;20.10;99.90;;;;;;5014715;28;20023;-86
2022/05/16 06:27:28;;;;;;;15.68;4.53;;;20.00;99.90;;;;;;5013457;28;20096;-85
2022/05/16 06:29:58;;;;;;;10.57;5.20;;;20.20;99.90;;;;;;5015447;28;20019;-84
2022/05/16 06:32:24;;;;;;;10.20;4.25;;;20.30;99.50;;;;;;5018680;28;20046;-84
2022/05/16 06:34:51;;;;;;;12.57;5.18;;;20.40;98.70;;;;;;5017342;28;20022;-85
2022/05/16 06:37:18;;;;;;;16.17;4.60;;;20.40;98.60;;;;;;5014665;28;20026;-85
2022/05/16 06:39:45;;;;;;;13.18;4.55;;;20.30;98.40;;;;;;5014669;28;20066;-86
2022/05/16 06:42:11;;;;;;;18.27;4.50;;;20.40;98.60;;;;;;5009340;28;20026;-86
2022/05/16 06:44:37;;;;;;;10.43;4.40;;;20.60;98.10;;;;;;5008653;28;20031;-87
2022/05/16 06:47:04;;;;;;;16.00;4.97;;;20.50;97.40;;;;;;5009929;28;20086;-86
2022/05/16 06:49:30;;;;;;;12.13;4.30;;;20.60;97.30;;;;;;5010088;28;20026;-86
2022/05/16 06:51:55;;;;;;;13.98;5.00;;;20.70;97.40;;;;;;5010528;28;20116;-84
2022/05/16 06:54:21;;;;;;;15.18;4.35;;;20.80;97.10;;;;;;5011636;28;20098;-87
2022/05/16 06:56:47;;;;;;;11.05;4.43;;;20.90;96.60;;;;;;5009558;28;20042;-84
2022/05/16 06:59:13;;;;;;;11.98;4.38;;;20.90;96.60;;;;;;5015237;28;20086;-85
2022/05/16 07:01:38;;;;;;;22.98;6.78;;;20.80;95.80;;;;;;5012909;28;20090;-87
2022/05/16 07:04:04;;;;;;;11.65;4.68;;;20.90;96.20;;;;;;4994861;28;20015;-85
2022/05/16 07:06:31;;;;;;;15.07;4.32;;;21.00;95.90;;;;;;5013516;28;20030;-86
2022/05/16 07:08:57;;;;;;;14.52;4.07;;;21.10;95.50;;;;;;5012290;28;20097;-86
2022/05/16 07:11:25;;;;;;;14.48;4.53;;;21.10;95.10;;;;;;5009393;28;20038;-85
2022/05/16 07:13:51;;;;;;;11.77;4.25;;;21.00;95.10;;;;;;5013522;28;20035;-86
2022/05/16 07:16:16;;;;;;;12.82;3.83;;;21.00;95.20;;;;;;5011204;28;20034;-86
2022/05/16 07:18:43;;;;;;;15.23;3.75;;;21.10;95.00;;;;;;5015518;28;20053;-86
2022/05/16 07:21:09;;;;;;;10.63;4.05;;;21.10;95.00;;;;;;5001054;28;20081;-86
2022/05/16 07:23:34;;;;;;;16.58;4.72;;;21.40;94.70;;;;;;5012028;28;20129;-86
2022/05/16 07:28:45;;;;;;;10.98;4.45;;;21.50;94.50;;;;;;5016919;28;20050;-85
2022/05/16 07:31:11;;;;;;;8.15;4.00;;;21.50;94.20;;;;;;5016399;28;20053;-85
2022/05/16 07:33:38;;;;;;;14.60;4.70;;;21.50;94.30;;;;;;5008506;28;20445;-85
2022/05/16 07:36:04;;;;;;;16.05;4.40;;;21.30;94.50;;;;;;5008293;28;20036;-86
2022/05/16 07:38:30;;;;;;;15.98;4.78;;;21.20;94.70;;;;;;5010705;28;20053;-86
2022/05/16 07:40:57;;;;;;;14.20;4.10;;;21.20;95.30;;;;;;5009407;28;20090;-87
2022/05/16 07:43:24;;;;;;;11.82;3.72;;;21.40;95.10;;;;;;5009764;28;20046;-87
2022/05/16 07:45:50;;;;;;;15.88;4.30;;;21.40;94.80;;;;;;5008094;28;20023;-86
2022/05/16 07:48:17;;;;;;;15.95;3.90;;;21.50;95.00;;;;;;5009394;28;20061;-87
2022/05/16 07:50:44;;;;;;;11.40;4.28;;;21.60;95.20;;;;;;5015426;28;20077;-85
2022/05/16 07:53:11;;;;;;;11.48;4.22;;;21.70;94.70;;;;;;5016714;28;20015;-85
2022/05/16 07:55:42;;;;;;;14.75;4.32;;;21.80;94.40;;;;;;5016231;28;20044;-87
2022/05/16 07:58:08;;;;;;;8.57;3.67;;;22.00;94.20;;;;;;5017674;28;20015;-85
2022/05/16 08:00:34;;;;;;;10.80;3.97;;;22.10;94.40;;;;;;5017211;28;20046;-85
2022/05/16 08:03:01;;;;;;;13.38;4.28;;;22.20;94.30;;;;;;5009474;28;20030;-87
2022/05/16 08:05:27;;;;;;;7.40;4.00;;;22.20;93.90;;;;;;5003794;28;20121;-86
2022/05/16 08:10:59;;;;;;;11.65;4.93;;;22.20;94.30;;;;;;4929670;29;20100;-87
2022/05/16 08:13:26;;;;;;;14.13;4.15;;;22.30;94.40;;;;;;4954880;29;20122;-86
2022/05/16 08:15:52;;;;;;;16.27;4.55;;;22.40;93.90;;;;;;4976135;28;20046;-87
2022/05/16 08:18:17;;;;;;;12.40;4.32;;;22.40;93.50;;;;;;5004657;28;20030;-86
2022/05/16 08:20:46;;;;;;;15.55;4.35;;;22.50;94.20;;;;;;5006862;28;20045;-86
2022/05/16 08:23:14;;;;;;;13.98;4.32;;;22.50;93.50;;;;;;5007537;28;20493;-86
2022/05/16 08:25:43;;;;;;;15.95;4.43;;;22.50;93.60;;;;;;5007718;28;20038;-86
2022/05/16 08:28:09;;;;;;;17.90;4.15;;;22.70;93.80;;;;;;5008522;28;20087;-85
2022/05/16 08:30:35;;;;;;;9.98;3.72;;;22.80;92.70;;;;;;5013461;28;20082;-85
2022/05/16 08:33:02;;;;;;;15.18;4.10;;;22.90;92.40;;;;;;5015684;28;20027;-86
2022/05/16 08:35:28;;;;;;;11.90;3.75;;;22.90;92.30;;;;;;5016410;28;20030;-84
2022/05/16 08:40:59;;;;;;;13.65;3.90;;;23.00;92.70;;;;;;5015619;28;20069;-85
2022/05/16 08:43:34;;;;;;;14.00;3.60;;;23.10;91.90;;;;;;5013723;28;20039;-85
2022/05/16 08:46:24;;;;;;;18.80;4.10;;;23.30;92.00;;;;;;5014908;28;20025;-85
2022/05/16 08:48:58;;;;;;;8.65;3.50;;;23.40;91.60;;;;;;5016662;28;20022;-84
2022/05/16 08:51:29;;;;;;;24.42;9.73;;;23.40;91.10;;;;;;5017688;28;20029;-84
2022/05/16 08:54:24;;;;;;;12.82;4.95;;;23.40;91.50;;;;;;5020158;28;20082;-85
2022/05/16 08:56:51;;;;;;;12.10;4.40;;;23.60;91.30;;;;;;5009366;28;20042;-85
2022/05/16 08:59:24;;;;;;;8.00;3.97;;;23.80;91.60;;;;;;4997312;28;20049;-86
2022/05/16 09:01:52;;;;;;;13.02;4.30;;;23.80;91.20;;;;;;5020346;28;20118;-84
2022/05/16 09:04:26;;;;;;;7.97;3.20;;;23.80;90.70;;;;;;5019619;28;20039;-84
2022/05/16 09:07:15;;;;;;;14.88;4.32;;;23.70;90.00;;;;;;5017752;28;20042;-86
2022/05/16 09:09:47;;;;;;;27.70;4.85;;;23.60;90.80;;;;;;5015548;28;20047;-85
2022/05/16 09:12:16;;;;;;;20.23;4.95;;;23.50;90.20;;;;;;5015912;23;20055;-82
2022/05/16 09:14:52;;;;;;;14.32;4.05;;;23.30;90.50;;;;;;4962317;29;20027;-81
2022/05/16 09:17:42;;;;;;;17.70;4.25;;;23.40;90.80;;;;;;4962243;29;20016;-80
2022/05/16 09:20:29;;;;;;;11.68;4.32;;;23.50;90.30;;;;;;4961853;29;20036;-79
2022/05/16 09:23:11;;;;;;;8.15;3.10;;;23.70;89.40;;;;;;4961712;29;20027;-81
2022/05/16 09:25:37;;;;;;;17.92;3.85;;;23.90;88.70;;;;;;4961712;29;20095;-81
2022/05/16 09:30:59;;;;;;;9.60;3.80;;;24.10;88.20;;;;;;4962631;29;20064;-81
2022/05/16 09:33:29;;;;;;;15.90;3.72;;;24.40;87.30;;;;;;4977696;28;20034;-82
2022/05/16 09:36:04;;;;;;;12.85;3.95;;;24.70;86.40;;;;;;4962439;29;20019;-80
2022/05/16 09:38:30;;;;;;;11.68;3.50;;;24.90;84.90;;;;;;4961905;29;20035;-80
2022/05/16 09:41:02;;;;;;;8.48;3.22;;;25.20;85.00;;;;;;4962250;29;20027;-80
2022/05/16 09:43:37;;;;;;;15.23;3.42;;;25.80;83.40;;;;;;4961929;29;20020;-81
2022/05/16 09:46:19;;;;;;;8.45;3.20;;;26.30;80.80;;;;;;4976856;28;20042;-81
2022/05/16 09:48:45;;;;;;;9.43;3.58;;;27.10;78.40;;;;;;4961799;29;20032;-82
2022/05/16 09:51:10;;;;;;;9.07;3.08;;;27.70;76.20;;;;;;4961626;29;20377;-81
2022/05/16 09:53:43;;;;;;;9.18;2.78;;;27.20;74.00;;;;;;4961318;29;20039;-81
2022/05/16 09:56:24;;;;;;;7.90;3.17;;;27.50;74.20;;;;;;4958558;29;20115;-82
2022/05/16 09:59:00;;;;;;;12.50;3.55;;;28.40;73.20;;;;;;4973543;28;20070;-82
2022/05/16 10:01:40;;;;;;;15.60;3.35;;;29.10;71.10;;;;;;4955857;29;20039;-83
2022/05/16 10:04:18;;;;;;;10.48;2.90;;;29.60;69.80;;;;;;4954774;29;20032;-81
2022/05/16 10:06:57;;;;;;;10.18;3.10;;;29.40;69.70;;;;;;4972311;29;20036;-80
2022/05/16 10:09:38;;;;;;;7.10;3.20;;;29.70;69.20;;;;;;4958114;29;20157;-80
2022/05/16 10:12:08;;;;;;;12.15;3.97;;;30.30;67.90;;;;;;4956221;29;20050;-82
2022/05/16 10:14:37;;;;;;;8.23;3.45;;;31.40;67.60;;;;;;4955141;29;20054;-80
2022/05/16 10:17:05;;;;;;;7.40;3.53;;;32.60;64.30;;;;;;4953633;29;20059;-82
2022/05/16 10:19:32;;;;;;;13.07;3.03;;;33.10;62.80;;;;;;4953643;29;20032;-82
2022/05/16 10:22:20;;;;;;;7.45;2.97;;;34.30;60.90;;;;;;4954639;29;20027;-81
2022/05/16 10:24:52;;;;;;;11.48;3.00;;;36.30;57.80;;;;;;4951822;29;20074;-81
2022/05/16 10:27:28;;;;;;;6.50;3.22;;;38.20;53.90;;;;;;4952772;29;20016;-82
2022/05/16 10:29:57;;;;;;;6.65;2.75;;;38.90;51.90;;;;;;4947379;29;20031;-82
2022/05/16 10:35:15;;;;;;;7.43;3.08;;;39.50;48.90;;;;;;4947140;29;20506;-81
2022/05/16 10:37:44;;;;;;;12.27;3.38;;;40.40;47.60;;;;;;4950130;29;20039;-80
2022/05/16 10:40:19;;;;;;;11.75;3.05;;;40.80;47.10;;;;;;4952238;29;20042;-82
2022/05/16 10:43:06;;;;;;;9.52;3.00;;;41.70;46.40;;;;;;4952398;29;20031;-82
2022/05/16 10:45:32;;;;;;;6.18;2.58;;;41.30;45.00;;;;;;4952995;29;20032;-81
2022/05/16 10:48:05;;;;;;;7.80;2.70;;;41.40;44.50;;;;;;4950201;29;20030;-82
2022/05/16 10:50:38;;;;;;;11.03;3.13;;;41.60;44.10;;;;;;4947236;29;20035;-82
2022/05/16 10:53:25;;;;;;;6.85;2.63;;;41.10;44.60;;;;;;4946947;29;20039;-81
2022/05/16 10:56:24;;;;;;;9.88;2.92;;;41.50;44.10;;;;;;4945779;29;20122;-82
2022/05/16 10:59:11;;;;;;;7.47;3.50;;;42.50;43.40;;;;;;4944397;29;20040;-82
2022/05/16 11:01:46;;;;;;;6.28;3.08;;;43.30;42.70;;;;;;4948509;29;20032;-82
2022/05/16 11:04:36;;;;;;;9.30;2.70;;;42.40;42.90;;;;;;4949646;29;20046;-81
2022/05/16 11:07:28;;;;;;;9.18;2.90;;;42.00;42.90;;;;;;4947080;29;20036;-82
2022/05/16 11:10:21;;;;;;;13.43;3.63;;;41.80;42.80;;;;;;4949461;29;20035;-81
2022/05/16 11:13:05;;;;;;;10.20;2.87;;;41.50;42.20;;;;;;4943974;29;20094;-82
2022/05/16 11:15:57;;;;;;;9.30;2.47;;;41.00;43.20;;;;;;4951227;29;20036;-82
2022/05/16 11:18:36;;;;;;;18.40;3.20;;;40.90;43.30;;;;;;4959343;29;20072;-81
2022/05/16 11:21:20;;;;;;;7.50;3.05;;;40.70;43.40;;;;;;4959727;29;20079;-82
2022/05/16 11:24:33;;;;;;;9.60;2.70;;;40.90;43.40;;;;;;4959704;29;20023;-83
2022/05/16 11:27:07;;;;;;;9.10;2.95;;;42.20;42.70;;;;;;4923113;29;20052;-82
2022/05/16 11:29:50;;;;;;;8.10;2.88;;;42.10;42.50;;;;;;4973739;29;20047;-80
2022/05/16 11:32:34;;;;;;;11.10;3.20;;;41.90;42.40;;;;;;4959524;29;20082;-81
2022/05/16 11:35:21;;;;;;;6.40;2.50;;;41.70;42.60;;;;;;4959159;29;20035;-81
2022/05/16 11:38:07;;;;;;;5.85;2.53;;;41.80;42.30;;;;;;4951939;29;20103;-80
2022/05/16 11:40:48;;;;;;;3.33;2.17;;;42.10;41.90;;;;;;4944617;29;20036;-80
2022/05/16 11:43:26;;;;;;;5.35;2.53;;;42.90;41.70;;;;;;4945504;29;20087;-82
2022/05/16 11:46:01;;;;;;;9.18;2.90;;;43.50;41.80;;;;;;4943808;29;20488;-79
2022/05/16 11:48:39;;;;;;;8.48;2.78;;;43.90;41.20;;;;;;4941536;29;20042;-81
2022/05/16 11:51:23;;;;;;;7.50;2.95;;;43.30;41.20;;;;;;4947418;29;20031;-81
2022/05/16 11:53:52;;;;;;;6.03;2.70;;;42.00;41.50;;;;;;4944958;29;20027;-80
2022/05/16 12:02:34;;;;;;;9.38;2.50;;;41.50;41.90;;;;;;4943006;29;20032;-81
2022/05/16 12:05:21;;;;;;;10.13;3.47;;;41.00;42.40;;;;;;4945324;29;20027;-82
2022/05/16 12:07:56;;;;;;;9.05;3.00;;;41.00;41.70;;;;;;4945882;29;20031;-83
2022/05/16 12:10:25;;;;;;;7.65;3.45;;;40.40;42.70;;;;;;4945970;29;20032;-80
2022/05/16 12:13:13;;;;;;;8.57;3.35;;;40.90;42.70;;;;;;4960169;28;20031;-82
2022/05/16 12:15:39;;;;;;;7.68;3.13;;;42.20;41.90;;;;;;4943052;29;20032;-83
2022/05/16 12:18:07;;;;;;;7.40;2.80;;;41.70;41.70;;;;;;4941217;29;20038;-82
2022/05/16 12:20:40;;;;;;;5.78;2.92;;;41.40;42.20;;;;;;4955480;29;20067;-82
2022/05/16 12:23:07;;;;;;;;;;;41.00;41.60;;;;;;4941987;29;20098;-84
2022/05/16 12:25:35;;;;;;;6.53;2.75;;;39.00;43.50;;;;;;4945968;29;19911;-82
2022/05/16 12:28:30;;;;;;;16.90;3.42;;;38.80;43.90;;;;;;4954956;29;20032;-81
2022/05/16 12:30:58;;;;;;;10.32;2.90;;;39.20;43.70;;;;;;4962345;29;20080;-83
2022/05/16 12:33:47;;;;;;;9.10;2.95;;;39.00;43.50;;;;;;4962467;29;20015;-80
2022/05/16 12:36:15;;;;;;;10.35;2.75;;;39.10;43.80;;;;;;4956668;29;20131;-82
2022/05/16 12:38:42;;;;;;;9.13;3.08;;;39.50;43.50;;;;;;4951070;29;20473;-81
2022/05/16 12:41:40;;;;;;;7.95;3.40;;;40.00;43.20;;;;;;4951473;29;20028;-81
2022/05/16 12:44:51;;;;;;;7.40;2.80;;;39.90;43.20;;;;;;4954717;29;20028;-81
2022/05/16 12:47:36;;;;;;;6.00;2.95;;;39.40;43.70;;;;;;4955166;29;20051;-82
2022/05/16 12:50:20;;;;;;;7.50;2.90;;;40.40;43.40;;;;;;4954313;29;20032;-82
2022/05/16 12:53:26;;;;;;;7.03;2.78;;;41.40;42.50;;;;;;4954433;29;20038;-81
2022/05/16 12:56:13;;;;;;;7.20;3.28;;;41.20;42.90;;;;;;4954712;29;20031;-82
2022/05/16 12:59:01;;;;;;;11.05;3.65;;;40.60;43.20;;;;;;4952604;29;20055;-81
2022/05/16 13:01:45;;;;;;;4.72;2.90;;;39.90;43.20;;;;;;4955967;29;20035;-82
2022/05/16 13:04:29;;;;;;;;;;;39.70;43.40;;;;;;4959201;29;20091;-80
2022/05/16 13:07:11;;;;;;;8.90;2.87;;;39.80;43.70;;;;;;4958842;29;19917;-82
2022/05/16 13:09:54;;;;;;;6.38;2.72;;;40.70;43.40;;;;;;4957248;29;20098;-81
2022/05/16 13:12:26;;;;;;;8.73;2.78;;;42.00;42.80;;;;;;4959253;29;20047;-81
2022/05/16 13:15:14;;;;;;;10.07;3.40;;;41.90;42.20;;;;;;4959521;29;20024;-81
2022/05/16 13:17:48;;;;;;;6.55;3.00;;;41.20;42.90;;;;;;4959851;29;20083;-81
2022/05/16 13:20:17;;;;;;;6.25;2.47;;;41.50;42.60;;;;;;4956630;29;20036;-83
2022/05/16 13:22:44;;;;;;;7.15;3.03;;;42.30;42.40;;;;;;4954681;29;20071;-81
2022/05/16 13:25:12;;;;;;;9.25;2.72;;;42.30;42.30;;;;;;4959334;29;20038;-81
2022/05/16 13:30:26;;;;;;;8.43;3.20;;;41.10;42.40;;;;;;4949638;29;20090;-80
2022/05/16 13:32:53;;;;;;;9.30;2.90;;;39.60;43.40;;;;;;4951130;28;20023;-82
2022/05/16 13:35:37;;;;;;;8.27;3.17;;;38.90;44.10;;;;;;4950308;29;20141;-81
2022/05/16 13:38:05;;;;;;;5.78;2.75;;;39.10;43.90;;;;;;4949335;29;20086;-83
2022/05/16 13:40:38;;;;;;;6.20;3.25;;;39.50;43.40;;;;;;4949763;29;20090;-80
2022/05/16 13:43:15;;;;;;;9.18;3.25;;;40.50;43.00;;;;;;4949658;29;20024;-82
2022/05/16 13:45:41;;;;;;;6.07;3.38;;;40.70;42.80;;;;;;4949361;29;20056;-83